Kimberly, Idaho
Current Conditions -  °F | °C
As of 4:53 AM on Monday 20 Oct 2014 (Local Time) from KTWF Reporting Station
Clear Clear  
Wind Chill: 61°   Ceiling: Unl
Heat Index: 61°   Visibility: 10mi
Dew Point: 30°   Wind: 9mph
Humidity: 31%   Direction: 150°SSE
Pressure: 29.95"   Gusts: NA
Location:  42.53°N, 114.36°W
Report Text: KTWF 201053Z AUTO 15008KT 110V190 10SM CLR 16/M01 A2995 RMK AO2 SLP088 T01611011
Loading
Personal Weather Stations






























Interactive Weather Map
Tropical Storm Tracking
New forecast layout! Learn more

10-Day Weather Forecast

Advertisements
Track Severe Weather on mobile